createdAt,value
2023-04-01T00:00:25.272Z,297.00
2023-04-01T00:01:25.278Z,298.00
2023-04-01T00:02:25.328Z,296.00
2023-04-01T00:03:25.488Z,296.00
2023-04-01T00:04:25.443Z,296.00
2023-04-01T00:05:25.320Z,297.00
2023-04-01T00:06:25.365Z,299.00
2023-04-01T00:07:25.372Z,299.00
2023-04-01T00:08:26.402Z,299.00
2023-04-01T00:09:25.384Z,301.00
2023-04-01T00:10:25.341Z,304.00
2023-04-01T00:11:25.358Z,304.00
2023-04-01T00:12:25.356Z,305.00
2023-04-01T00:13:25.339Z,305.00
2023-04-01T00:14:25.317Z,304.00
2023-04-01T00:15:25.306Z,301.00
2023-04-01T00:16:25.390Z,301.00
2023-04-01T00:17:25.392Z,302.00
2023-04-01T00:18:25.308Z,303.00
2023-04-01T00:19:25.284Z,302.00
2023-04-01T00:20:25.272Z,303.00
2023-04-01T00:21:25.267Z,301.00
2023-04-01T00:22:25.266Z,302.00
2023-04-01T00:23:25.275Z,301.00
2023-04-01T00:24:25.256Z,299.00
2023-04-01T00:25:25.246Z,299.00
2023-04-01T00:26:25.256Z,299.00
2023-04-01T00:27:25.259Z,300.00
2023-04-01T00:28:25.201Z,300.00
2023-04-01T00:29:25.279Z,300.00
2023-04-01T00:30:25.285Z,300.00
2023-04-01T00:31:25.223Z,298.00
2023-04-01T00:32:25.243Z,298.00
2023-04-01T00:33:25.193Z,299.00
2023-04-01T00:34:25.228Z,298.00
2023-04-01T00:35:25.237Z,298.00
2023-04-01T00:36:25.818Z,299.00
2023-04-01T00:37:25.309Z,299.00
2023-04-01T00:38:25.349Z,300.00
2023-04-01T00:39:25.380Z,300.00
2023-04-01T00:40:25.432Z,301.00
2023-04-01T00:41:25.411Z,302.00
2023-04-01T00:42:25.467Z,301.00
2023-04-01T00:43:25.517Z,301.00
2023-04-01T00:44:25.585Z,301.00
2023-04-01T00:45:25.578Z,303.00
2023-04-01T00:46:25.752Z,302.00
2023-04-01T00:47:25.711Z,303.00
2023-04-01T00:48:25.716Z,304.00
2023-04-01T00:49:25.760Z,305.00
2023-04-01T00:50:25.792Z,304.00
2023-04-01T00:51:25.866Z,303.00
2023-04-01T00:52:25.884Z,303.00
2023-04-01T00:53:25.949Z,302.00
2023-04-01T00:54:25.944Z,300.00
2023-04-01T00:55:26.004Z,300.00
2023-04-01T00:56:26.084Z,302.00
2023-04-01T00:57:26.147Z,302.00
2023-04-01T00:58:26.185Z,307.00
2023-04-01T00:59:26.207Z,306.00
2023-04-01T01:00:26.209Z,305.00
2023-04-01T01:01:26.427Z,304.00
2023-04-01T01:02:26.379Z,307.00
2023-04-01T01:03:26.367Z,305.00
2023-04-01T01:04:26.444Z,304.00
2023-04-01T01:05:26.448Z,305.00
2023-04-01T01:06:26.497Z,306.00
2023-04-01T01:07:26.536Z,305.00
2023-04-01T01:08:26.573Z,304.00
2023-04-01T01:09:26.617Z,306.00
2023-04-01T01:10:26.689Z,306.00
2023-04-01T01:11:26.752Z,307.00
2023-04-01T01:12:26.794Z,307.00
2023-04-01T01:13:26.914Z,306.00
2023-04-01T01:14:26.852Z,303.00
2023-04-01T01:15:26.903Z,302.00
2023-04-01T01:16:27.012Z,301.00
2023-04-01T01:17:27.823Z,303.00
2023-04-01T01:18:27.015Z,302.00
2023-04-01T01:19:27.092Z,304.00
2023-04-01T01:20:27.180Z,305.00
2023-04-01T01:21:27.171Z,305.00
2023-04-01T01:22:27.220Z,304.00
2023-04-01T01:23:27.290Z,302.00
2023-04-01T01:24:27.341Z,303.00
2023-04-01T01:25:27.404Z,303.00
2023-04-01T01:26:27.498Z,303.00
2023-04-01T01:27:27.463Z,303.00
2023-04-01T01:28:27.499Z,302.00
2023-04-01T01:29:27.534Z,300.00
2023-04-01T01:30:27.580Z,300.00
2023-04-01T01:31:27.671Z,299.00
2023-04-01T01:32:27.689Z,299.00
2023-04-01T01:33:27.704Z,300.00
2023-04-01T01:34:27.805Z,301.00
2023-04-01T01:35:27.744Z,301.00
2023-04-01T01:36:27.827Z,300.00
2023-04-01T01:37:27.827Z,301.00
2023-04-01T01:38:27.901Z,302.00
2023-04-01T01:39:27.916Z,302.00
2023-04-01T01:40:28.835Z,300.00
2023-04-01T01:41:28.025Z,301.00
2023-04-01T01:42:28.040Z,301.00
2023-04-01T01:43:28.139Z,300.00
2023-04-01T01:44:28.126Z,298.00
2023-04-01T01:45:28.145Z,297.00
2023-04-01T01:46:28.226Z,295.00
2023-04-01T01:47:28.249Z,298.00
2023-04-01T01:48:28.281Z,297.00
2023-04-01T01:49:28.271Z,297.00
2023-04-01T01:50:28.340Z,297.00
2023-04-01T01:51:28.303Z,299.00
2023-04-01T01:52:28.346Z,299.00
2023-04-01T01:53:28.387Z,301.00
2023-04-01T01:54:28.385Z,301.00
2023-04-01T01:55:28.460Z,302.00
2023-04-01T01:56:28.472Z,299.00
2023-04-01T01:57:28.536Z,300.00
2023-04-01T01:58:28.578Z,298.00
2023-04-01T01:59:28.624Z,297.00
2023-04-01T02:00:28.633Z,294.00
2023-04-01T02:01:28.712Z,295.00
2023-04-01T02:02:28.748Z,293.00
2023-04-01T02:03:28.717Z,295.00
2023-04-01T02:04:28.801Z,295.00
2023-04-01T02:05:28.805Z,296.00
2023-04-01T02:06:28.813Z,296.00
2023-04-01T02:07:29.292Z,296.00
2023-04-01T02:08:28.855Z,296.00
2023-04-01T02:09:28.902Z,296.00
2023-04-01T02:10:28.933Z,296.00
2023-04-01T02:11:29.017Z,296.00
2023-04-01T02:12:29.030Z,297.00
2023-04-01T02:13:29.063Z,298.00
2023-04-01T02:14:29.061Z,298.00
2023-04-01T02:15:29.142Z,297.00
2023-04-01T02:16:29.289Z,297.00
2023-04-01T02:17:29.205Z,299.00
2023-04-01T02:18:29.264Z,300.00
2023-04-01T02:19:29.279Z,303.00
2023-04-01T02:20:29.308Z,302.00
2023-04-01T02:21:29.346Z,301.00
2023-04-01T02:22:29.391Z,300.00
2023-04-01T02:23:29.417Z,301.00
2023-04-01T02:24:29.480Z,300.00
2023-04-01T02:25:29.534Z,299.00
2023-04-01T02:26:29.568Z,298.00
2023-04-01T02:27:29.653Z,298.00
2023-04-01T02:28:29.648Z,297.00
2023-04-01T02:29:29.696Z,297.00
2023-04-01T02:30:29.699Z,297.00
2023-04-01T02:31:29.756Z,294.00
2023-04-01T02:32:29.826Z,295.00
2023-04-01T02:33:29.842Z,294.00
2023-04-01T02:34:29.819Z,292.00
2023-04-01T02:35:29.902Z,291.00
2023-04-01T02:36:30.049Z,291.00
2023-04-01T02:37:29.911Z,292.00
2023-04-01T02:38:29.946Z,294.00
2023-04-01T02:39:30.029Z,294.00
2023-04-01T02:40:30.059Z,293.00
2023-04-01T02:41:30.086Z,295.00
2023-04-01T02:42:30.083Z,296.00
2023-04-01T02:43:30.151Z,297.00
2023-04-01T02:44:30.158Z,294.00
2023-04-01T02:45:30.291Z,294.00
2023-04-01T02:46:30.283Z,294.00
2023-04-01T02:47:30.267Z,296.00
2023-04-01T02:48:30.268Z,296.00
2023-04-01T02:49:30.307Z,297.00
2023-04-01T02:50:30.342Z,297.00
2023-04-01T02:51:31.089Z,294.00
2023-04-01T02:52:30.444Z,294.00
2023-04-01T02:53:30.437Z,293.00
2023-04-01T02:54:30.434Z,293.00
2023-04-01T02:55:30.713Z,295.00
2023-04-01T02:56:30.513Z,295.00
2023-04-01T02:57:30.729Z,297.00
2023-04-01T02:58:30.561Z,298.00
2023-04-01T02:59:30.597Z,296.00
2023-04-01T03:00:30.640Z,296.00
2023-04-01T03:01:30.741Z,295.00
2023-04-01T03:02:30.845Z,293.00
2023-04-01T03:03:30.760Z,293.00
2023-04-01T03:04:30.783Z,292.00
2023-04-01T03:05:31.066Z,293.00
2023-04-01T03:06:30.814Z,295.00
2023-04-01T03:07:30.862Z,293.00
2023-04-01T03:08:30.972Z,292.00
2023-04-01T03:09:30.939Z,291.00
2023-04-01T03:10:30.949Z,291.00
2023-04-01T03:11:31.002Z,292.00
2023-04-01T03:12:31.039Z,293.00
2023-04-01T03:13:31.085Z,293.00
2023-04-01T03:14:31.117Z,293.00
2023-04-01T03:15:31.319Z,294.00
2023-04-01T03:16:31.229Z,295.00
2023-04-01T03:17:31.220Z,294.00
2023-04-01T03:18:31.260Z,294.00
2023-04-01T03:19:31.333Z,292.00
2023-04-01T03:20:31.321Z,291.00
2023-04-01T03:21:31.402Z,292.00
2023-04-01T03:22:31.402Z,292.00
2023-04-01T03:23:31.455Z,294.00
2023-04-01T03:24:31.486Z,292.00
2023-04-01T03:25:31.723Z,288.00
2023-04-01T03:26:31.571Z,287.00
2023-04-01T03:27:31.616Z,288.00
2023-04-01T03:28:31.680Z,288.00
2023-04-01T03:29:31.738Z,287.00
2023-04-01T03:30:31.758Z,286.00
2023-04-01T03:31:31.865Z,287.00
2023-04-01T03:32:31.863Z,289.00
2023-04-01T03:33:31.939Z,287.00
2023-04-01T03:34:31.935Z,288.00
2023-04-01T03:35:32.186Z,287.00
2023-04-01T03:36:32.064Z,288.00
2023-04-01T03:37:32.063Z,288.00
2023-04-01T03:38:32.117Z,289.00
2023-04-01T03:39:32.173Z,289.00
2023-04-01T03:40:32.235Z,288.00
2023-04-01T03:41:32.293Z,288.00
2023-04-01T03:42:32.280Z,288.00
2023-04-01T03:43:32.372Z,288.00
2023-04-01T03:44:32.338Z,287.00
2023-04-01T03:45:32.537Z,287.00
2023-04-01T03:46:32.516Z,285.00
2023-04-01T03:47:32.542Z,285.00
2023-04-01T03:48:32.535Z,284.00
2023-04-01T03:49:32.572Z,284.00
2023-04-01T03:50:32.593Z,285.00
2023-04-01T03:51:32.650Z,285.00
2023-04-01T03:52:32.728Z,287.00
2023-04-01T03:53:32.744Z,287.00
2023-04-01T03:54:32.776Z,288.00
2023-04-01T03:55:32.962Z,289.00
2023-04-01T03:56:32.899Z,288.00
2023-04-01T03:57:33.067Z,288.00
2023-04-01T03:58:32.972Z,289.00
2023-04-01T03:59:33.022Z,288.00
2023-04-01T04:00:33.091Z,289.00
2023-04-01T04:01:33.080Z,288.00
2023-04-01T04:02:33.216Z,292.00
2023-04-01T04:03:33.373Z,293.00
2023-04-01T04:04:33.315Z,294.00
2023-04-01T04:05:33.386Z,293.00
2023-04-01T04:06:33.325Z,293.00
2023-04-01T04:07:33.387Z,293.00
2023-04-01T04:08:33.391Z,291.00
2023-04-01T04:09:33.446Z,292.00
2023-04-01T04:10:33.496Z,295.00
2023-04-01T04:11:33.511Z,295.00
2023-04-01T04:12:33.574Z,295.00
2023-04-01T04:13:33.632Z,294.00
2023-04-01T04:14:33.690Z,293.00
2023-04-01T04:15:33.946Z,293.00
2023-04-01T04:16:33.775Z,293.00
2023-04-01T04:17:33.915Z,291.00
2023-04-01T04:18:33.877Z,291.00
2023-04-01T04:19:33.883Z,290.00
2023-04-01T04:20:33.932Z,291.00
2023-04-01T04:21:34.002Z,289.00
2023-04-01T04:22:34.020Z,289.00
2023-04-01T04:23:34.058Z,290.00
2023-04-01T04:24:34.114Z,290.00
2023-04-01T04:25:34.358Z,289.00
2023-04-01T04:26:34.184Z,289.00
2023-04-01T04:27:34.254Z,291.00
2023-04-01T04:28:34.303Z,291.00
2023-04-01T04:29:34.316Z,290.00
2023-04-01T04:30:34.365Z,289.00
2023-04-01T04:31:34.481Z,287.00
2023-04-01T04:32:34.473Z,286.00
2023-04-01T04:33:34.480Z,285.00
2023-04-01T04:34:34.543Z,284.00
2023-04-01T04:35:34.810Z,283.00
2023-04-01T04:36:34.661Z,282.00
2023-04-01T04:37:34.672Z,281.00
2023-04-01T04:38:34.726Z,281.00
2023-04-01T04:39:34.787Z,283.00
2023-04-01T04:40:34.792Z,282.00
2023-04-01T04:41:37.156Z,283.00
2023-04-01T04:42:34.848Z,284.00
2023-04-01T04:43:34.864Z,286.00
2023-04-01T04:44:34.809Z,284.00
2023-04-01T04:45:35.079Z,285.00
2023-04-01T04:46:34.856Z,283.00
2023-04-01T04:47:34.808Z,285.00
2023-04-01T04:48:34.800Z,285.00
2023-04-01T04:49:34.792Z,284.00
2023-04-01T04:50:34.804Z,284.00
2023-04-01T04:51:34.754Z,285.00
2023-04-01T04:52:34.771Z,284.00
2023-04-01T04:53:34.778Z,283.00
2023-04-01T04:54:34.794Z,284.00
2023-04-01T04:55:34.952Z,281.00
2023-04-01T04:56:34.725Z,280.00
2023-04-01T04:57:34.806Z,281.00
2023-04-01T04:58:34.705Z,281.00
2023-04-01T04:59:34.707Z,283.00
2023-04-01T05:00:34.724Z,285.00
2023-04-01T05:01:34.753Z,285.00
2023-04-01T05:02:34.719Z,286.00
2023-04-01T05:03:34.764Z,285.00
2023-04-01T05:04:34.684Z,286.00
2023-04-01T05:05:34.892Z,287.00
2023-04-01T05:06:34.653Z,285.00
2023-04-01T05:07:34.672Z,286.00
2023-04-01T05:08:34.672Z,285.00
2023-04-01T05:09:34.637Z,285.00
2023-04-01T05:10:34.621Z,286.00
2023-04-01T05:11:34.628Z,287.00
2023-04-01T05:12:34.638Z,287.00
2023-04-01T05:13:34.597Z,287.00
2023-04-01T05:14:34.598Z,284.00
2023-04-01T05:15:34.899Z,284.00
2023-04-01T05:16:34.566Z,285.00
2023-04-01T05:17:34.627Z,283.00
2023-04-01T05:18:34.583Z,282.00
2023-04-01T05:19:34.580Z,281.00
2023-04-01T05:20:34.586Z,282.00
2023-04-01T05:21:34.509Z,285.00
2023-04-01T05:22:34.605Z,286.00
2023-04-01T05:23:34.672Z,287.00
2023-04-01T05:24:34.681Z,286.00
2023-04-01T05:25:35.050Z,285.00
2023-04-01T05:26:34.779Z,285.00
2023-04-01T05:27:34.837Z,286.00
2023-04-01T05:28:34.897Z,287.00
2023-04-01T05:29:34.902Z,286.00
2023-04-01T05:30:34.992Z,285.00
2023-04-01T05:31:35.029Z,286.00
2023-04-01T05:32:35.122Z,287.00
2023-04-01T05:33:35.087Z,287.00
2023-04-01T05:34:35.151Z,285.00
2023-04-01T05:35:35.404Z,285.00
2023-04-01T05:36:35.215Z,288.00
2023-04-01T05:37:35.277Z,289.00
2023-04-01T05:38:35.332Z,288.00
2023-04-01T05:39:35.333Z,289.00
2023-04-01T05:40:35.434Z,288.00
2023-04-01T05:41:35.554Z,287.00
2023-04-01T05:42:36.971Z,287.00
2023-04-01T05:43:35.458Z,287.00
2023-04-01T05:44:35.419Z,285.00
2023-04-01T05:45:35.567Z,285.00
2023-04-01T05:46:35.519Z,287.00
2023-04-01T05:47:35.439Z,287.00
2023-04-01T05:48:35.458Z,287.00
2023-04-01T05:49:35.409Z,287.00
2023-04-01T05:50:35.415Z,285.00
2023-04-01T05:51:35.419Z,286.00
2023-04-01T05:52:35.392Z,288.00
2023-04-01T05:53:35.389Z,290.00
2023-04-01T05:54:35.400Z,291.00
2023-04-01T05:55:35.576Z,291.00
2023-04-01T05:56:35.340Z,292.00
2023-04-01T05:57:35.478Z,292.00
2023-04-01T05:58:35.361Z,292.00
2023-04-01T05:59:35.331Z,291.00
2023-04-01T06:00:35.322Z,288.00
2023-04-01T06:01:35.343Z,287.00
2023-04-01T06:02:35.384Z,286.00
2023-04-01T06:03:35.424Z,287.00
2023-04-01T06:04:35.306Z,286.00
2023-04-01T06:05:35.550Z,287.00
2023-04-01T06:06:35.324Z,286.00
2023-04-01T06:07:35.314Z,286.00
2023-04-01T06:08:35.281Z,287.00
2023-04-01T06:09:35.282Z,288.00
2023-04-01T06:10:35.226Z,287.00
2023-04-01T06:11:35.239Z,287.00
2023-04-01T06:12:35.244Z,285.00
2023-04-01T06:13:35.253Z,284.00
2023-04-01T06:14:35.213Z,284.00
2023-04-01T06:15:35.461Z,284.00
2023-04-01T06:16:35.261Z,284.00
2023-04-01T06:17:35.250Z,288.00
2023-04-01T06:18:35.207Z,286.00
2023-04-01T06:19:35.200Z,286.00
2023-04-01T06:20:35.183Z,285.00
2023-04-01T06:21:35.214Z,284.00
2023-04-01T06:22:35.185Z,285.00
2023-04-01T06:23:35.139Z,283.00
2023-04-01T06:24:35.192Z,284.00
2023-04-01T06:25:35.395Z,282.00
2023-04-01T06:26:35.127Z,283.00
2023-04-01T06:27:35.144Z,281.00
2023-04-01T06:28:35.187Z,282.00
2023-04-01T06:29:35.176Z,282.00
2023-04-01T06:30:35.130Z,282.00
2023-04-01T06:31:35.180Z,280.00
2023-04-01T06:32:35.121Z,283.00
2023-04-01T06:33:35.104Z,285.00
2023-04-01T06:34:35.084Z,285.00
2023-04-01T06:35:35.453Z,284.00
2023-04-01T06:36:35.149Z,283.00
2023-04-01T06:37:35.143Z,283.00
2023-04-01T06:38:35.074Z,282.00
2023-04-01T06:39:35.092Z,282.00
2023-04-01T06:40:35.091Z,284.00
2023-04-01T06:41:35.032Z,281.00
2023-04-01T06:42:35.043Z,282.00
2023-04-01T06:43:35.046Z,283.00
2023-04-01T06:44:35.057Z,282.00
2023-04-01T06:45:35.469Z,282.00
2023-04-01T06:46:35.171Z,279.00
2023-04-01T06:47:35.250Z,279.00
2023-04-01T06:48:35.254Z,280.00
2023-04-01T06:49:35.301Z,280.00
2023-04-01T06:50:35.372Z,281.00
2023-04-01T06:51:35.369Z,279.00
2023-04-01T06:52:35.746Z,280.00
2023-04-01T06:53:35.498Z,281.00
2023-04-01T06:54:35.554Z,281.00
2023-04-01T06:55:35.606Z,281.00
2023-04-01T06:56:35.688Z,281.00
2023-04-01T06:57:35.726Z,280.00
2023-04-01T06:58:35.731Z,282.00
2023-04-01T06:59:35.836Z,281.00
2023-04-01T07:00:35.895Z,280.00
2023-04-01T07:01:35.963Z,279.00
2023-04-01T07:02:36.044Z,278.00
2023-04-01T07:03:36.086Z,278.00
2023-04-01T07:04:36.095Z,279.00
2023-04-01T07:05:36.190Z,284.00
2023-04-01T07:06:36.194Z,286.00
2023-04-01T07:07:36.237Z,285.00
2023-04-01T07:08:36.327Z,283.00
2023-04-01T07:09:36.343Z,284.00
2023-04-01T07:10:36.423Z,283.00
2023-04-01T07:11:36.420Z,283.00
2023-04-01T07:12:36.541Z,284.00
2023-04-01T07:13:36.538Z,285.00
2023-04-01T07:14:36.567Z,286.00
2023-04-01T07:15:36.683Z,284.00
2023-04-01T07:16:36.661Z,285.00
2023-04-01T07:17:36.702Z,283.00
2023-04-01T07:18:38.052Z,284.00
2023-04-01T07:19:36.729Z,281.00
2023-04-01T07:20:36.732Z,280.00
2023-04-01T07:21:36.799Z,281.00
2023-04-01T07:22:36.877Z,282.00
2023-04-01T07:23:36.855Z,281.00
2023-04-01T07:24:36.938Z,279.00
2023-04-01T07:25:36.924Z,282.00
2023-04-01T07:26:36.982Z,281.00
2023-04-01T07:27:36.987Z,281.00
2023-04-01T07:28:37.053Z,280.00
2023-04-01T07:29:37.074Z,282.00
2023-04-01T07:30:37.071Z,282.00
2023-04-01T07:31:37.204Z,282.00
2023-04-01T07:32:37.150Z,281.00
2023-04-01T07:33:37.140Z,285.00
2023-04-01T07:34:37.129Z,284.00
2023-04-01T07:35:37.153Z,283.00
2023-04-01T07:36:37.146Z,285.00
2023-04-01T07:37:37.237Z,286.00
2023-04-01T07:38:37.345Z,286.00
2023-04-01T07:39:37.225Z,286.00
2023-04-01T07:40:37.246Z,286.00
2023-04-01T07:41:37.230Z,287.00
2023-04-01T07:42:37.221Z,287.00
2023-04-01T07:43:37.216Z,289.00
2023-04-01T07:44:37.295Z,287.00
2023-04-01T07:45:37.293Z,288.00
2023-04-01T07:46:37.310Z,286.00
2023-04-01T07:47:37.269Z,286.00
2023-04-01T07:48:37.254Z,287.00
2023-04-01T07:49:37.237Z,286.00
2023-04-01T07:50:41.052Z,285.00
2023-04-01T07:51:37.314Z,285.00
2023-04-01T07:52:37.282Z,285.00
2023-04-01T07:53:37.528Z,287.00
2023-04-01T07:54:37.218Z,285.00
2023-04-01T07:55:37.230Z,285.00
2023-04-01T07:56:37.282Z,283.00
2023-04-01T07:57:37.248Z,280.00
2023-04-01T07:58:37.264Z,281.00
2023-04-01T07:59:37.220Z,281.00
2023-04-01T08:00:37.223Z,282.00
2023-04-01T08:01:37.307Z,281.00
2023-04-01T08:02:37.301Z,282.00
2023-04-01T08:03:37.365Z,283.00
2023-04-01T08:04:37.287Z,282.00
2023-04-01T08:05:37.151Z,279.00
2023-04-01T08:06:37.171Z,278.00
2023-04-01T08:07:37.231Z,278.00
2023-04-01T08:08:37.162Z,279.00
2023-04-01T08:09:37.139Z,278.00
2023-04-01T08:10:37.146Z,279.00
2023-04-01T08:11:37.155Z,281.00
2023-04-01T08:12:37.182Z,282.00
2023-04-01T08:13:37.111Z,283.00
2023-04-01T08:14:37.165Z,282.00
2023-04-01T08:15:37.102Z,281.00
2023-04-01T08:16:37.111Z,281.00
2023-04-01T08:17:37.203Z,282.00
2023-04-01T08:18:37.053Z,280.00
2023-04-01T08:19:37.086Z,283.00
2023-04-01T08:20:37.114Z,282.00
2023-04-01T08:21:37.054Z,282.00
2023-04-01T08:22:37.054Z,283.00
2023-04-01T08:23:37.047Z,283.00
2023-04-01T08:24:46.607Z,283.00
2023-04-01T08:25:38.059Z,283.00
2023-04-01T08:26:37.015Z,282.00
2023-04-01T08:27:37.047Z,283.00
2023-04-01T08:28:37.024Z,282.00
2023-04-01T08:29:37.000Z,284.00
2023-04-01T08:30:37.011Z,283.00
2023-04-01T08:31:37.153Z,283.00
2023-04-01T08:32:37.054Z,282.00
2023-04-01T08:33:36.962Z,281.00
2023-04-01T08:34:36.933Z,282.00
2023-04-01T08:35:38.474Z,280.00
2023-04-01T08:36:37.026Z,280.00
2023-04-01T08:37:36.955Z,282.00
2023-04-01T08:38:36.951Z,283.00
2023-04-01T08:39:36.963Z,284.00
2023-04-01T08:40:36.927Z,282.00
2023-04-01T08:41:36.962Z,281.00
2023-04-01T08:42:36.943Z,281.00
2023-04-01T08:43:37.000Z,279.00
2023-04-01T08:44:36.930Z,279.00
2023-04-01T08:45:37.025Z,280.00
2023-04-01T08:46:36.988Z,280.00
2023-04-01T08:47:37.002Z,281.00
2023-04-01T08:48:37.009Z,281.00
2023-04-01T08:49:37.021Z,280.00
2023-04-01T08:50:36.965Z,281.00
2023-04-01T08:51:37.048Z,282.00
2023-04-01T08:52:37.158Z,280.00
2023-04-01T08:53:37.101Z,281.00
2023-04-01T08:54:37.157Z,282.00
2023-04-01T08:55:37.204Z,283.00
2023-04-01T08:56:37.314Z,283.00
2023-04-01T08:57:39.024Z,281.00
2023-04-01T08:58:37.404Z,281.00
2023-04-01T08:59:37.451Z,283.00
2023-04-01T09:00:37.552Z,283.00
2023-04-01T09:01:37.618Z,283.00
2023-04-01T09:02:37.703Z,283.00
2023-04-01T09:03:37.779Z,281.00
2023-04-01T09:04:37.846Z,280.00
2023-04-01T09:05:37.800Z,280.00
2023-04-01T09:06:37.835Z,277.00
2023-04-01T09:07:37.888Z,276.00
2023-04-01T09:08:37.983Z,276.00
2023-04-01T09:09:37.927Z,275.00
2023-04-01T09:10:37.993Z,277.00
2023-04-01T09:11:38.077Z,279.00
2023-04-01T09:12:38.187Z,281.00
2023-04-01T09:13:38.102Z,282.00
2023-04-01T09:14:38.120Z,283.00
2023-04-01T09:15:38.219Z,286.00
2023-04-01T09:16:38.194Z,287.00
2023-04-01T09:17:38.186Z,284.00
2023-04-01T09:18:38.219Z,281.00
2023-04-01T09:19:38.247Z,279.00
2023-04-01T09:20:38.260Z,277.00
2023-04-01T09:21:38.352Z,277.00
2023-04-01T09:22:38.361Z,277.00
2023-04-01T09:23:38.308Z,277.00
2023-04-01T09:24:38.390Z,274.00
2023-04-01T09:25:38.362Z,274.00
2023-04-01T09:26:38.426Z,275.00
2023-04-01T09:27:38.334Z,275.00
2023-04-01T09:28:38.324Z,274.00
2023-04-01T09:29:38.316Z,275.00
2023-04-01T09:30:38.332Z,275.00
2023-04-01T09:31:38.426Z,276.00
2023-04-01T09:32:38.374Z,276.00
2023-04-01T09:33:38.287Z,276.00
2023-04-01T09:34:38.301Z,275.00
2023-04-01T09:35:38.315Z,275.00
2023-04-01T09:36:38.315Z,276.00
2023-04-01T09:37:38.354Z,277.00
2023-04-01T09:38:38.400Z,278.00
2023-04-01T09:39:38.495Z,281.00
2023-04-01T09:40:38.532Z,281.00
2023-04-01T09:41:38.471Z,279.00
2023-04-01T09:42:38.465Z,278.00
2023-04-01T09:43:38.533Z,278.00
2023-04-01T09:44:38.535Z,275.00
2023-04-01T09:45:38.540Z,276.00
2023-04-01T09:46:38.583Z,277.00
2023-04-01T09:47:38.672Z,277.00
2023-04-01T09:48:38.671Z,276.00
2023-04-01T09:49:38.717Z,276.00
2023-04-01T09:50:38.791Z,275.00
2023-04-01T09:51:38.831Z,276.00
2023-04-01T09:52:38.904Z,276.00
2023-04-01T09:53:38.950Z,274.00
2023-04-01T09:54:39.022Z,274.00
2023-04-01T09:55:39.058Z,274.00
2023-04-01T09:56:39.139Z,274.00
2023-04-01T09:57:39.234Z,275.00
2023-04-01T09:58:43.877Z,276.00
2023-04-01T09:59:40.231Z,276.00
2023-04-01T10:00:39.270Z,276.00
2023-04-01T10:01:39.314Z,276.00
2023-04-01T10:02:39.288Z,274.00
2023-04-01T10:03:39.251Z,273.00
2023-04-01T10:04:39.282Z,272.00
2023-04-01T10:05:39.276Z,273.00
2023-04-01T10:06:39.215Z,273.00
2023-04-01T10:07:39.202Z,272.00
2023-04-01T10:08:39.136Z,272.00
2023-04-01T10:09:39.220Z,271.00
2023-04-01T10:10:39.236Z,269.00
2023-04-01T10:11:39.271Z,270.00
2023-04-01T10:12:39.286Z,268.00
2023-04-01T10:13:39.331Z,269.00
2023-04-01T10:14:39.340Z,267.00
2023-04-01T10:15:39.359Z,266.00
2023-04-01T10:16:39.487Z,267.00
2023-04-01T10:18:58.272Z,273.00
2023-04-01T10:19:58.261Z,275.00
2023-04-01T10:20:58.326Z,275.00
2023-04-01T10:21:58.385Z,273.00
2023-04-01T10:22:58.389Z,273.00
2023-04-01T10:23:58.443Z,274.00
2023-04-01T10:24:58.450Z,277.00
2023-04-01T10:25:58.488Z,275.00
2023-04-01T10:26:58.566Z,274.00
2023-04-01T10:27:58.571Z,275.00
2023-04-01T10:28:58.638Z,276.00
2023-04-01T10:29:58.625Z,277.00
2023-04-01T10:30:58.699Z,278.00
2023-04-01T10:31:58.771Z,278.00
2023-04-01T10:32:58.786Z,276.00
2023-04-01T10:33:58.757Z,275.00
2023-04-01T10:34:58.756Z,275.00
2023-04-01T10:35:58.861Z,275.00
2023-04-01T10:36:58.791Z,275.00
2023-04-01T10:37:58.892Z,272.00
2023-04-01T10:38:58.894Z,272.00
2023-04-01T10:39:58.887Z,272.00
2023-04-01T10:40:58.966Z,270.00
2023-04-01T10:41:58.980Z,271.00
2023-04-01T10:42:58.991Z,271.00
2023-04-01T10:43:58.988Z,272.00
2023-04-01T10:44:58.989Z,272.00
2023-04-01T10:45:59.073Z,271.00
2023-04-01T10:46:59.024Z,271.00
2023-04-01T10:47:59.091Z,272.00
2023-04-01T10:48:59.065Z,272.00
2023-04-01T10:49:59.031Z,270.00
2023-04-01T10:50:59.077Z,270.00
2023-04-01T10:51:59.080Z,270.00
2023-04-01T10:52:59.069Z,272.00
2023-04-01T10:53:59.151Z,272.00
2023-04-01T10:54:59.107Z,273.00
2023-04-01T10:55:59.176Z,273.00
2023-04-01T10:56:59.153Z,273.00
2023-04-01T10:57:59.188Z,273.00
2023-04-01T10:58:59.190Z,275.00
2023-04-01T10:59:59.210Z,274.00
2023-04-01T11:00:59.221Z,272.00
2023-04-01T11:02:10.197Z,272.00
2023-04-01T11:03:00.346Z,272.00
2023-04-01T11:03:59.323Z,273.00
2023-04-01T11:04:59.209Z,271.00
2023-04-01T11:05:59.163Z,270.00
2023-04-01T11:06:59.196Z,270.00
2023-04-01T11:08:05.864Z,271.00
2023-04-01T11:09:00.197Z,271.00
2023-04-01T11:09:59.159Z,272.00
2023-04-01T11:10:59.177Z,274.00
2023-04-01T11:11:59.181Z,275.00
2023-04-01T11:12:59.111Z,274.00
2023-04-01T11:13:59.142Z,270.00
2023-04-01T11:14:59.133Z,270.00
2023-04-01T11:15:59.253Z,271.00
2023-04-01T11:16:59.147Z,271.00
2023-04-01T11:17:59.126Z,272.00
2023-04-01T11:18:59.255Z,273.00
2023-04-01T11:19:59.059Z,274.00
2023-04-01T11:20:59.051Z,274.00
2023-04-01T11:21:59.096Z,273.00
2023-04-01T11:22:59.091Z,273.00
2023-04-01T11:24:04.993Z,274.00
2023-04-01T11:25:00.125Z,271.00
2023-04-01T11:25:59.029Z,271.00
2023-04-01T11:26:59.165Z,270.00
2023-04-01T11:27:59.012Z,269.00
2023-04-01T11:28:59.022Z,270.00
2023-04-01T11:30:00.607Z,269.00
2023-04-01T11:30:59.064Z,270.00
2023-04-01T11:31:59.008Z,269.00
2023-04-01T11:32:58.994Z,269.00
2023-04-01T11:33:58.990Z,269.00
2023-04-01T11:34:58.979Z,270.00
2023-04-01T11:35:58.972Z,269.00
2023-04-01T11:36:58.998Z,267.00
2023-04-01T11:37:58.941Z,267.00
2023-04-01T11:38:58.949Z,269.00
2023-04-01T11:39:59.004Z,272.00
2023-04-01T11:40:58.971Z,273.00
2023-04-01T11:41:58.972Z,274.00
2023-04-01T11:42:58.912Z,275.00
2023-04-01T11:43:58.932Z,271.00
2023-04-01T11:44:58.940Z,271.00
2023-04-01T11:45:58.953Z,271.00
2023-04-01T11:46:58.906Z,271.00
2023-04-01T11:47:58.949Z,270.00
2023-04-01T11:48:58.914Z,270.00
2023-04-01T11:49:58.882Z,269.00
2023-04-01T11:50:58.860Z,269.00
2023-04-01T11:51:58.868Z,271.00
2023-04-01T11:52:58.831Z,273.00
2023-04-01T11:53:58.881Z,272.00
2023-04-01T11:54:58.821Z,272.00
2023-04-01T11:55:58.896Z,270.00
2023-04-01T11:56:58.856Z,268.00
2023-04-01T11:57:58.921Z,270.00
2023-04-01T11:58:58.880Z,272.00
2023-04-01T11:59:58.896Z,272.00
2023-04-01T12:00:59.102Z,272.00
2023-04-01T12:01:58.955Z,273.00
2023-04-01T12:02:59.122Z,271.00
2023-04-01T12:03:59.187Z,271.00
2023-04-01T12:04:59.067Z,271.00
2023-04-01T12:05:59.103Z,270.00
2023-04-01T12:06:59.112Z,270.00
2023-04-01T12:07:59.174Z,271.00
2023-04-01T12:08:59.162Z,272.00
2023-04-01T12:09:59.229Z,273.00
2023-04-01T12:10:59.226Z,273.00
2023-04-01T12:11:59.242Z,273.00
2023-04-01T12:13:59.222Z,271.00
2023-04-01T12:14:59.295Z,273.00
2023-04-01T12:15:59.352Z,272.00
2023-04-01T12:16:59.314Z,271.00
2023-04-01T12:17:59.357Z,269.00
2023-04-01T12:18:59.297Z,269.00
2023-04-01T12:19:59.369Z,269.00
2023-04-01T12:20:59.385Z,269.00
2023-04-01T12:21:59.377Z,267.00
2023-04-01T12:22:59.431Z,267.00
2023-04-01T12:23:59.410Z,266.00
2023-04-01T12:24:59.509Z,268.00
2023-04-01T12:25:59.471Z,267.00
2023-04-01T12:26:59.566Z,269.00
2023-04-01T12:27:59.592Z,270.00
2023-04-01T12:28:59.600Z,270.00
2023-04-01T12:29:59.557Z,269.00
2023-04-01T12:30:59.588Z,268.00